sensor_id;sensor_type;location;lat;lon;timestamp;P1;durP1;ratioP1;P2;durP2;ratioP2
9413;SDS011;4746;35.664;139.738;2023-02-13T00:00:56;17.27;;;15.47;;
9413;SDS011;4746;35.664;139.738;2023-02-13T00:03:24;17.00;;;15.20;;
9413;SDS011;4746;35.664;139.738;2023-02-13T00:05:51;18.50;;;15.80;;
9413;SDS011;4746;35.664;139.738;2023-02-13T00:08:19;20.60;;;16.43;;
9413;SDS011;4746;35.664;139.738;2023-02-13T00:10:47;18.13;;;16.20;;
9413;SDS011;4746;35.664;139.738;2023-02-13T00:13:15;16.97;;;15.17;;
9413;SDS011;4746;35.664;139.738;2023-02-13T00:15:42;17.13;;;15.40;;
9413;SDS011;4746;35.664;139.738;2023-02-13T00:18:10;18.37;;;15.87;;
9413;SDS011;4746;35.664;139.738;2023-02-13T00:20:37;19.87;;;16.50;;
9413;SDS011;4746;35.664;139.738;2023-02-13T00:23:05;17.20;;;15.60;;
9413;SDS011;4746;35.664;139.738;2023-02-13T00:25:32;17.43;;;15.77;;
9413;SDS011;4746;35.664;139.738;2023-02-13T00:28:00;18.90;;;16.03;;
9413;SDS011;4746;35.664;139.738;2023-02-13T00:30:27;19.17;;;16.97;;
9413;SDS011;4746;35.664;139.738;2023-02-13T00:32:55;16.80;;;15.20;;
9413;SDS011;4746;35.664;139.738;2023-02-13T00:35:22;20.93;;;16.50;;
9413;SDS011;4746;35.664;139.738;2023-02-13T00:37:53;18.73;;;16.57;;
9413;SDS011;4746;35.664;139.738;2023-02-13T00:40:20;18.50;;;16.57;;
9413;SDS011;4746;35.664;139.738;2023-02-13T00:42:48;18.47;;;16.53;;
9413;SDS011;4746;35.664;139.738;2023-02-13T00:45:17;19.53;;;17.63;;
9413;SDS011;4746;35.664;139.738;2023-02-13T00:47:45;19.03;;;16.20;;
9413;SDS011;4746;35.664;139.738;2023-02-13T00:50:13;20.43;;;17.57;;
9413;SDS011;4746;35.664;139.738;2023-02-13T00:52:40;21.23;;;17.73;;
9413;SDS011;4746;35.664;139.738;2023-02-13T00:55:08;20.13;;;18.03;;
9413;SDS011;4746;35.664;139.738;2023-02-13T00:57:35;22.67;;;17.17;;
9413;SDS011;4746;35.664;139.738;2023-02-13T01:00:03;20.27;;;18.27;;
9413;SDS011;4746;35.664;139.738;2023-02-13T01:02:31;19.87;;;17.77;;
9413;SDS011;4746;35.664;139.738;2023-02-13T01:05:00;20.83;;;16.80;;
9413;SDS011;4746;35.664;139.738;2023-02-13T01:07:28;19.27;;;17.10;;
9413;SDS011;4746;35.664;139.738;2023-02-13T01:09:56;18.87;;;17.07;;
9413;SDS011;4746;35.664;139.738;2023-02-13T01:12:23;19.13;;;17.23;;
9413;SDS011;4746;35.664;139.738;2023-02-13T01:14:51;18.93;;;17.03;;
9413;SDS011;4746;35.664;139.738;2023-02-13T01:17:19;20.17;;;17.73;;
9413;SDS011;4746;35.664;139.738;2023-02-13T01:19:47;19.60;;;16.50;;
9413;SDS011;4746;35.664;139.738;2023-02-13T01:22:14;21.70;;;17.07;;
9413;SDS011;4746;35.664;139.738;2023-02-13T01:24:42;17.07;;;15.30;;
9413;SDS011;4746;35.664;139.738;2023-02-13T01:27:09;18.53;;;16.30;;
9413;SDS011;4746;35.664;139.738;2023-02-13T01:29:37;18.60;;;16.60;;
9413;SDS011;4746;35.664;139.738;2023-02-13T01:32:04;18.30;;;16.50;;
9413;SDS011;4746;35.664;139.738;2023-02-13T01:34:33;17.70;;;15.43;;
9413;SDS011;4746;35.664;139.738;2023-02-13T01:37:00;17.73;;;15.90;;
9413;SDS011;4746;35.664;139.738;2023-02-13T01:39:28;17.03;;;15.53;;
9413;SDS011;4746;35.664;139.738;2023-02-13T01:41:55;17.23;;;15.57;;
9413;SDS011;4746;35.664;139.738;2023-02-13T01:48:01;16.60;;;15.00;;
9413;SDS011;4746;35.664;139.738;2023-02-13T01:50:18;16.37;;;14.70;;
9413;SDS011;4746;35.664;139.738;2023-02-13T01:52:53;17.03;;;15.33;;
9413;SDS011;4746;35.664;139.738;2023-02-13T01:55:35;17.23;;;15.53;;
9413;SDS011;4746;35.664;139.738;2023-02-13T01:58:36;17.93;;;16.20;;
9413;SDS011;4746;35.664;139.738;2023-02-13T02:01:09;18.83;;;15.90;;
9413;SDS011;4746;35.664;139.738;2023-02-13T02:03:46;18.03;;;16.30;;
9413;SDS011;4746;35.664;139.738;2023-02-13T02:07:16;17.17;;;15.37;;
9413;SDS011;4746;35.664;139.738;2023-02-13T02:09:55;16.73;;;15.03;;
9413;SDS011;4746;35.664;139.738;2023-02-13T02:12:51;16.73;;;14.97;;
9413;SDS011;4746;35.664;139.738;2023-02-13T02:15:51;16.73;;;15.23;;
9413;SDS011;4746;35.664;139.738;2023-02-13T02:18:19;20.83;;;15.43;;
9413;SDS011;4746;35.664;139.738;2023-02-13T02:21:07;19.20;;;17.37;;
9413;SDS011;4746;35.664;139.738;2023-02-13T02:27:02;18.43;;;16.63;;
9413;SDS011;4746;35.664;139.738;2023-02-13T02:32:56;18.80;;;17.03;;
9413;SDS011;4746;35.664;139.738;2023-02-13T02:39:11;21.00;;;18.70;;
9413;SDS011;4746;35.664;139.738;2023-02-13T02:45:27;20.80;;;18.80;;
9413;SDS011;4746;35.664;139.738;2023-02-13T02:48:09;19.83;;;17.83;;
9413;SDS011;4746;35.664;139.738;2023-02-13T02:51:45;21.50;;;19.50;;
9413;SDS011;4746;35.664;139.738;2023-02-13T02:54:47;21.77;;;19.30;;
9413;SDS011;4746;35.664;139.738;2023-02-13T02:57:33;20.80;;;18.80;;
9413;SDS011;4746;35.664;139.738;2023-02-13T03:01:04;19.87;;;17.87;;
9413;SDS011;4746;35.664;139.738;2023-02-13T03:03:57;19.03;;;17.27;;
9413;SDS011;4746;35.664;139.738;2023-02-13T03:06:50;20.73;;;18.90;;
9413;SDS011;4746;35.664;139.738;2023-02-13T03:09:29;20.80;;;18.67;;
9413;SDS011;4746;35.664;139.738;2023-02-13T03:12:23;20.53;;;18.53;;
9413;SDS011;4746;35.664;139.738;2023-02-13T03:15:16;19.13;;;17.17;;
9413;SDS011;4746;35.664;139.738;2023-02-13T03:17:43;20.53;;;18.43;;
9413;SDS011;4746;35.664;139.738;2023-02-13T03:27:03;18.73;;;17.03;;
9413;SDS011;4746;35.664;139.738;2023-02-13T03:30:04;20.43;;;18.33;;
9413;SDS011;4746;35.664;139.738;2023-02-13T03:39:06;18.07;;;16.23;;
9413;SDS011;4746;35.664;139.738;2023-02-13T03:41:52;18.20;;;16.47;;
9413;SDS011;4746;35.664;139.738;2023-02-13T03:47:48;16.00;;;14.50;;
9413;SDS011;4746;35.664;139.738;2023-02-13T03:50:21;17.73;;;15.93;;
9413;SDS011;4746;35.664;139.738;2023-02-13T03:52:59;17.93;;;15.23;;
9413;SDS011;4746;35.664;139.738;2023-02-13T03:55:42;16.10;;;14.60;;
9413;SDS011;4746;35.664;139.738;2023-02-13T03:58:34;15.87;;;14.43;;
9413;SDS011;4746;35.664;139.738;2023-02-13T04:01:30;15.87;;;14.40;;
9413;SDS011;4746;35.664;139.738;2023-02-13T04:07:09;15.37;;;13.97;;
9413;SDS011;4746;35.664;139.738;2023-02-13T04:09:58;15.77;;;14.17;;
9413;SDS011;4746;35.664;139.738;2023-02-13T04:18:44;13.57;;;12.33;;
9413;SDS011;4746;35.664;139.738;2023-02-13T04:21:15;15.43;;;14.03;;
9413;SDS011;4746;35.664;139.738;2023-02-13T04:23:42;14.63;;;13.17;;
9413;SDS011;4746;35.664;139.738;2023-02-13T04:26:13;14.60;;;13.37;;
9413;SDS011;4746;35.664;139.738;2023-02-13T04:28:49;16.17;;;14.77;;
9413;SDS011;4746;35.664;139.738;2023-02-13T04:31:18;15.77;;;14.33;;
9413;SDS011;4746;35.664;139.738;2023-02-13T04:33:46;15.53;;;13.47;;
9413;SDS011;4746;35.664;139.738;2023-02-13T04:36:13;15.13;;;13.73;;
9413;SDS011;4746;35.664;139.738;2023-02-13T04:38:41;14.33;;;13.10;;
9413;SDS011;4746;35.664;139.738;2023-02-13T04:41:10;15.77;;;14.17;;
9413;SDS011;4746;35.664;139.738;2023-02-13T04:43:38;15.40;;;14.00;;
9413;SDS011;4746;35.664;139.738;2023-02-13T04:46:05;15.20;;;13.83;;
9413;SDS011;4746;35.664;139.738;2023-02-13T04:48:33;15.57;;;13.97;;
9413;SDS011;4746;35.664;139.738;2023-02-13T04:51:00;15.37;;;13.93;;
9413;SDS011;4746;35.664;139.738;2023-02-13T04:53:28;14.73;;;13.43;;
9413;SDS011;4746;35.664;139.738;2023-02-13T04:55:56;14.73;;;13.20;;
9413;SDS011;4746;35.664;139.738;2023-02-13T04:58:23;15.63;;;14.03;;
9413;SDS011;4746;35.664;139.738;2023-02-13T05:00:51;14.17;;;12.77;;
9413;SDS011;4746;35.664;139.738;2023-02-13T05:03:18;15.60;;;14.00;;
9413;SDS011;4746;35.664;139.738;2023-02-13T05:05:47;14.30;;;12.83;;
9413;SDS011;4746;35.664;139.738;2023-02-13T05:08:15;14.17;;;12.77;;
9413;SDS011;4746;35.664;139.738;2023-02-13T05:10:42;16.07;;;14.37;;
9413;SDS011;4746;35.664;139.738;2023-02-13T05:13:10;13.97;;;12.63;;
9413;SDS011;4746;35.664;139.738;2023-02-13T05:15:38;14.93;;;13.47;;
9413;SDS011;4746;35.664;139.738;2023-02-13T05:18:07;13.60;;;12.20;;
9413;SDS011;4746;35.664;139.738;2023-02-13T05:20:34;14.40;;;13.00;;
9413;SDS011;4746;35.664;139.738;2023-02-13T05:23:02;14.57;;;13.07;;
9413;SDS011;4746;35.664;139.738;2023-02-13T05:25:48;15.13;;;13.73;;
9413;SDS011;4746;35.664;139.738;2023-02-13T05:28:16;15.07;;;13.57;;
9413;SDS011;4746;35.664;139.738;2023-02-13T05:31:02;16.03;;;14.40;;
9413;SDS011;4746;35.664;139.738;2023-02-13T05:33:29;15.10;;;13.60;;
9413;SDS011;4746;35.664;139.738;2023-02-13T05:35:57;15.30;;;13.90;;
9413;SDS011;4746;35.664;139.738;2023-02-13T05:38:24;15.37;;;13.77;;
9413;SDS011;4746;35.664;139.738;2023-02-13T05:40:52;14.77;;;13.30;;
9413;SDS011;4746;35.664;139.738;2023-02-13T05:43:19;14.80;;;13.40;;
9413;SDS011;4746;35.664;139.738;2023-02-13T05:45:47;15.33;;;13.93;;
9413;SDS011;4746;35.664;139.738;2023-02-13T05:48:16;14.87;;;13.33;;
9413;SDS011;4746;35.664;139.738;2023-02-13T05:50:45;15.13;;;13.77;;
9413;SDS011;4746;35.664;139.738;2023-02-13T05:53:12;14.67;;;13.17;;
9413;SDS011;4746;35.664;139.738;2023-02-13T05:55:40;14.60;;;13.27;;
9413;SDS011;4746;35.664;139.738;2023-02-13T05:58:07;14.37;;;12.97;;
9413;SDS011;4746;35.664;139.738;2023-02-13T06:00:36;15.67;;;14.17;;
9413;SDS011;4746;35.664;139.738;2023-02-13T06:03:04;15.60;;;13.80;;
9413;SDS011;4746;35.664;139.738;2023-02-13T06:05:31;15.13;;;13.53;;
9413;SDS011;4746;35.664;139.738;2023-02-13T06:07:59;13.67;;;12.23;;
9413;SDS011;4746;35.664;139.738;2023-02-13T06:10:27;13.83;;;12.63;;
9413;SDS011;4746;35.664;139.738;2023-02-13T06:12:54;13.03;;;11.83;;
9413;SDS011;4746;35.664;139.738;2023-02-13T06:15:22;14.07;;;12.37;;
9413;SDS011;4746;35.664;139.738;2023-02-13T06:17:49;15.17;;;13.67;;
9413;SDS011;4746;35.664;139.738;2023-02-13T06:20:17;14.60;;;13.10;;
9413;SDS011;4746;35.664;139.738;2023-02-13T06:22:53;14.17;;;12.97;;
9413;SDS011;4746;35.664;139.738;2023-02-13T06:25:21;14.83;;;13.47;;
9413;SDS011;4746;35.664;139.738;2023-02-13T06:27:49;14.43;;;13.13;;
9413;SDS011;4746;35.664;139.738;2023-02-13T06:30:16;14.10;;;12.60;;
9413;SDS011;4746;35.664;139.738;2023-02-13T06:32:45;14.13;;;12.77;;
9413;SDS011;4746;35.664;139.738;2023-02-13T06:35:14;14.23;;;12.03;;
9413;SDS011;4746;35.664;139.738;2023-02-13T06:37:41;14.43;;;12.90;;
9413;SDS011;4746;35.664;139.738;2023-02-13T06:40:10;12.83;;;11.73;;
9413;SDS011;4746;35.664;139.738;2023-02-13T06:42:43;14.20;;;12.80;;
9413;SDS011;4746;35.664;139.738;2023-02-13T06:45:11;12.80;;;11.70;;
9413;SDS011;4746;35.664;139.738;2023-02-13T06:47:42;12.47;;;11.37;;
9413;SDS011;4746;35.664;139.738;2023-02-13T06:50:12;13.60;;;12.40;;
9413;SDS011;4746;35.664;139.738;2023-02-13T06:52:48;12.30;;;11.23;;
9413;SDS011;4746;35.664;139.738;2023-02-13T06:55:17;13.03;;;11.73;;
9413;SDS011;4746;35.664;139.738;2023-02-13T06:57:45;11.23;;;10.10;;
9413;SDS011;4746;35.664;139.738;2023-02-13T07:00:14;12.70;;;11.40;;
9413;SDS011;4746;35.664;139.738;2023-02-13T07:02:43;12.03;;;11.03;;
9413;SDS011;4746;35.664;139.738;2023-02-13T07:05:13;11.83;;;10.83;;
9413;SDS011;4746;35.664;139.738;2023-02-13T07:07:41;12.40;;;11.37;;
9413;SDS011;4746;35.664;139.738;2023-02-13T07:10:10;12.80;;;11.33;;
9413;SDS011;4746;35.664;139.738;2023-02-13T07:12:39;11.30;;;10.27;;
9413;SDS011;4746;35.664;139.738;2023-02-13T07:15:07;11.47;;;10.47;;
9413;SDS011;4746;35.664;139.738;2023-02-13T07:17:35;11.37;;;10.27;;
9413;SDS011;4746;35.664;139.738;2023-02-13T07:20:04;10.97;;;9.83;;
9413;SDS011;4746;35.664;139.738;2023-02-13T07:22:33;11.10;;;10.10;;
9413;SDS011;4746;35.664;139.738;2023-02-13T07:25:00;9.33;;;8.63;;
9413;SDS011;4746;35.664;139.738;2023-02-13T07:27:28;10.30;;;9.40;;
9413;SDS011;4746;35.664;139.738;2023-02-13T07:29:56;10.27;;;9.27;;
9413;SDS011;4746;35.664;139.738;2023-02-13T07:32:23;9.63;;;8.83;;
9413;SDS011;4746;35.664;139.738;2023-02-13T07:34:51;9.70;;;8.73;;
9413;SDS011;4746;35.664;139.738;2023-02-13T07:37:19;11.07;;;9.97;;
9413;SDS011;4746;35.664;139.738;2023-02-13T07:39:46;9.90;;;8.90;;
9413;SDS011;4746;35.664;139.738;2023-02-13T07:42:14;9.87;;;8.97;;
9413;SDS011;4746;35.664;139.738;2023-02-13T07:44:41;9.80;;;8.97;;
9413;SDS011;4746;35.664;139.738;2023-02-13T07:47:09;9.17;;;8.30;;
9413;SDS011;4746;35.664;139.738;2023-02-13T07:49:36;9.10;;;8.30;;
9413;SDS011;4746;35.664;139.738;2023-02-13T07:52:04;8.03;;;7.43;;
9413;SDS011;4746;35.664;139.738;2023-02-13T07:54:32;7.77;;;7.07;;
9413;SDS011;4746;35.664;139.738;2023-02-13T07:57:02;7.17;;;6.53;;
9413;SDS011;4746;35.664;139.738;2023-02-13T07:59:30;10.10;;;6.83;;
9413;SDS011;4746;35.664;139.738;2023-02-13T08:01:57;7.07;;;6.37;;
9413;SDS011;4746;35.664;139.738;2023-02-13T08:04:25;6.37;;;5.87;;
9413;SDS011;4746;35.664;139.738;2023-02-13T08:06:52;6.53;;;6.03;;
9413;SDS011;4746;35.664;139.738;2023-02-13T08:09:20;6.03;;;5.53;;
9413;SDS011;4746;35.664;139.738;2023-02-13T08:12:06;5.17;;;4.77;;
9413;SDS011;4746;35.664;139.738;2023-02-13T08:14:35;5.27;;;4.87;;
9413;SDS011;4746;35.664;139.738;2023-02-13T08:17:02;5.37;;;4.87;;
9413;SDS011;4746;35.664;139.738;2023-02-13T08:19:30;4.70;;;4.30;;
9413;SDS011;4746;35.664;139.738;2023-02-13T08:21:57;4.53;;;4.13;;
9413;SDS011;4746;35.664;139.738;2023-02-13T08:24:25;4.80;;;4.40;;
9413;SDS011;4746;35.664;139.738;2023-02-13T08:26:54;4.93;;;4.53;;
9413;SDS011;4746;35.664;139.738;2023-02-13T08:29:22;5.77;;;5.27;;
9413;SDS011;4746;35.664;139.738;2023-02-13T08:31:49;5.10;;;4.57;;
9413;SDS011;4746;35.664;139.738;2023-02-13T08:34:17;4.70;;;4.30;;
9413;SDS011;4746;35.664;139.738;2023-02-13T08:36:44;5.17;;;4.67;;
9413;SDS011;4746;35.664;139.738;2023-02-13T08:39:12;4.43;;;4.10;;
9413;SDS011;4746;35.664;139.738;2023-02-13T08:41:39;4.53;;;4.23;;
9413;SDS011;4746;35.664;139.738;2023-02-13T08:44:08;4.60;;;4.20;;
9413;SDS011;4746;35.664;139.738;2023-02-13T08:46:36;4.50;;;4.10;;
9413;SDS011;4746;35.664;139.738;2023-02-13T08:49:04;4.83;;;4.53;;
9413;SDS011;4746;35.664;139.738;2023-02-13T08:51:31;5.10;;;4.70;;
9413;SDS011;4746;35.664;139.738;2023-02-13T08:53:59;5.03;;;4.67;;
9413;SDS011;4746;35.664;139.738;2023-02-13T08:56:26;5.80;;;5.30;;
9413;SDS011;4746;35.664;139.738;2023-02-13T08:58:54;6.30;;;5.80;;
9413;SDS011;4746;35.664;139.738;2023-02-13T09:01:21;6.10;;;5.60;;
9413;SDS011;4746;35.664;139.738;2023-02-13T09:03:49;6.27;;;5.87;;
9413;SDS011;4746;35.664;139.738;2023-02-13T09:06:17;7.30;;;6.70;;
9413;SDS011;4746;35.664;139.738;2023-02-13T09:08:44;6.53;;;5.93;;
9413;SDS011;4746;35.664;139.738;2023-02-13T09:11:12;5.73;;;5.23;;
9413;SDS011;4746;35.664;139.738;2023-02-13T09:13:39;6.57;;;6.07;;
9413;SDS011;4746;35.664;139.738;2023-02-13T09:16:07;6.33;;;5.83;;
9413;SDS011;4746;35.664;139.738;2023-02-13T09:18:36;6.50;;;5.97;;
9413;SDS011;4746;35.664;139.738;2023-02-13T09:21:05;7.00;;;6.40;;
9413;SDS011;4746;35.664;139.738;2023-02-13T09:23:37;6.30;;;5.70;;
9413;SDS011;4746;35.664;139.738;2023-02-13T09:26:09;6.60;;;6.00;;
9413;SDS011;4746;35.664;139.738;2023-02-13T09:28:40;7.67;;;6.97;;
9413;SDS011;4746;35.664;139.738;2023-02-13T09:31:09;7.40;;;6.80;;
9413;SDS011;4746;35.664;139.738;2023-02-13T09:33:40;7.63;;;6.83;;
9413;SDS011;4746;35.664;139.738;2023-02-13T09:36:14;7.90;;;7.30;;
9413;SDS011;4746;35.664;139.738;2023-02-13T09:38:55;6.83;;;6.33;;
9413;SDS011;4746;35.664;139.738;2023-02-13T09:41:41;7.60;;;7.00;;
9413;SDS011;4746;35.664;139.738;2023-02-13T09:44:13;7.73;;;7.13;;
9413;SDS011;4746;35.664;139.738;2023-02-13T09:50:04;7.73;;;7.13;;
9413;SDS011;4746;35.664;139.738;2023-02-13T09:52:56;8.07;;;7.47;;
9413;SDS011;4746;35.664;139.738;2023-02-13T09:55:39;7.23;;;6.53;;
9413;SDS011;4746;35.664;139.738;2023-02-13T10:01:36;6.73;;;6.13;;
9413;SDS011;4746;35.664;139.738;2023-02-13T10:06:43;7.40;;;6.70;;
9413;SDS011;4746;35.664;139.738;2023-02-13T10:09:29;7.50;;;6.87;;
9413;SDS011;4746;35.664;139.738;2023-02-13T10:15:06;7.87;;;7.20;;
9413;SDS011;4746;35.664;139.738;2023-02-13T10:18:11;7.30;;;6.70;;
9413;SDS011;4746;35.664;139.738;2023-02-13T10:20:58;7.17;;;6.57;;
9413;SDS011;4746;35.664;139.738;2023-02-13T10:23:37;8.27;;;7.57;;
9413;SDS011;4746;35.664;139.738;2023-02-13T10:26:25;8.03;;;7.33;;
9413;SDS011;4746;35.664;139.738;2023-02-13T10:29:20;9.83;;;9.00;;
9413;SDS011;4746;35.664;139.738;2023-02-13T10:32:09;7.73;;;7.03;;
9413;SDS011;4746;35.664;139.738;2023-02-13T10:34:43;8.10;;;7.40;;
9413;SDS011;4746;35.664;139.738;2023-02-13T10:37:13;9.50;;;8.63;;
9413;SDS011;4746;35.664;139.738;2023-02-13T10:39:45;9.13;;;8.40;;
9413;SDS011;4746;35.664;139.738;2023-02-13T10:42:21;8.97;;;8.17;;
9413;SDS011;4746;35.664;139.738;2023-02-13T10:50:56;8.73;;;8.03;;
9413;SDS011;4746;35.664;139.738;2023-02-13T10:56:24;8.47;;;7.57;;
9413;SDS011;4746;35.664;139.738;2023-02-13T11:04:48;7.57;;;6.87;;
9413;SDS011;4746;35.664;139.738;2023-02-13T11:07:44;7.43;;;6.80;;
9413;SDS011;4746;35.664;139.738;2023-02-13T11:10:18;8.10;;;7.37;;
9413;SDS011;4746;35.664;139.738;2023-02-13T11:12:48;7.00;;;6.40;;
9413;SDS011;4746;35.664;139.738;2023-02-13T11:15:25;7.50;;;6.90;;
9413;SDS011;4746;35.664;139.738;2023-02-13T11:18:00;7.07;;;6.47;;
9413;SDS011;4746;35.664;139.738;2023-02-13T11:20:43;6.30;;;5.80;;
9413;SDS011;4746;35.664;139.738;2023-02-13T11:28:43;6.60;;;6.00;;
9413;SDS011;4746;35.664;139.738;2023-02-13T11:31:30;5.30;;;4.87;;
9413;SDS011;4746;35.664;139.738;2023-02-13T11:34:45;5.70;;;5.03;;
9413;SDS011;4746;35.664;139.738;2023-02-13T11:36:53;5.83;;;5.33;;
9413;SDS011;4746;35.664;139.738;2023-02-13T11:39:44;5.33;;;4.57;;
9413;SDS011;4746;35.664;139.738;2023-02-13T11:42:15;6.03;;;5.53;;
9413;SDS011;4746;35.664;139.738;2023-02-13T11:47:49;6.00;;;5.30;;
9413;SDS011;4746;35.664;139.738;2023-02-13T11:50:20;5.53;;;5.13;;
9413;SDS011;4746;35.664;139.738;2023-02-13T11:53:14;5.80;;;5.33;;
9413;SDS011;4746;35.664;139.738;2023-02-13T11:58:42;5.83;;;5.37;;
9413;SDS011;4746;35.664;139.738;2023-02-13T12:04:06;6.40;;;5.83;;
9413;SDS011;4746;35.664;139.738;2023-02-13T12:07:02;6.37;;;5.87;;
9413;SDS011;4746;35.664;139.738;2023-02-13T12:12:36;6.57;;;5.97;;
9413;SDS011;4746;35.664;139.738;2023-02-13T12:15:15;6.47;;;5.40;;
9413;SDS011;4746;35.664;139.738;2023-02-13T12:17:56;5.47;;;4.90;;
9413;SDS011;4746;35.664;139.738;2023-02-13T12:26:59;4.47;;;4.17;;
9413;SDS011;4746;35.664;139.738;2023-02-13T12:32:47;4.80;;;4.10;;
9413;SDS011;4746;35.664;139.738;2023-02-13T12:47:35;4.37;;;4.07;;
9413;SDS011;4746;35.664;139.738;2023-02-13T12:53:51;4.20;;;3.90;;
9413;SDS011;4746;35.664;139.738;2023-02-13T13:00:11;4.33;;;4.07;;
9413;SDS011;4746;35.664;139.738;2023-02-13T13:15:49;4.67;;;4.23;;
9413;SDS011;4746;35.664;139.738;2023-02-13T13:26:56;5.27;;;4.77;;
9413;SDS011;4746;35.664;139.738;2023-02-13T13:29:32;5.37;;;4.97;;
9413;SDS011;4746;35.664;139.738;2023-02-13T13:32:23;4.90;;;4.50;;
9413;SDS011;4746;35.664;139.738;2023-02-13T13:35:00;4.17;;;3.90;;
9413;SDS011;4746;35.664;139.738;2023-02-13T13:37:47;4.23;;;3.93;;
9413;SDS011;4746;35.664;139.738;2023-02-13T13:40:42;4.57;;;4.17;;
9413;SDS011;4746;35.664;139.738;2023-02-13T13:43:29;3.40;;;3.20;;
9413;SDS011;4746;35.664;139.738;2023-02-13T13:52:32;3.93;;;3.63;;
9413;SDS011;4746;35.664;139.738;2023-02-13T13:55:08;4.03;;;3.50;;
9413;SDS011;4746;35.664;139.738;2023-02-13T14:04:01;3.40;;;3.20;;
9413;SDS011;4746;35.664;139.738;2023-02-13T14:16:07;3.73;;;3.43;;
9413;SDS011;4746;35.664;139.738;2023-02-13T14:18:20;3.77;;;3.47;;
9413;SDS011;4746;35.664;139.738;2023-02-13T14:20:56;4.57;;;4.17;;
9413;SDS011;4746;35.664;139.738;2023-02-13T14:28:42;4.40;;;4.00;;
9413;SDS011;4746;35.664;139.738;2023-02-13T14:31:51;4.20;;;3.70;;
9413;SDS011;4746;35.664;139.738;2023-02-13T14:34:49;4.20;;;3.90;;
9413;SDS011;4746;35.664;139.738;2023-02-13T14:37:30;4.30;;;4.00;;
9413;SDS011;4746;35.664;139.738;2023-02-13T14:40:13;4.90;;;4.40;;
9413;SDS011;4746;35.664;139.738;2023-02-13T14:42:57;4.47;;;4.03;;
9413;SDS011;4746;35.664;139.738;2023-02-13T14:45:50;4.33;;;4.03;;
9413;SDS011;4746;35.664;139.738;2023-02-13T14:48:26;4.43;;;4.10;;
9413;SDS011;4746;35.664;139.738;2023-02-13T14:51:20;4.30;;;4.00;;
9413;SDS011;4746;35.664;139.738;2023-02-13T14:54:41;3.87;;;3.67;;
9413;SDS011;4746;35.664;139.738;2023-02-13T14:57:36;4.77;;;3.20;;
9413;SDS011;4746;35.664;139.738;2023-02-13T15:03:36;4.17;;;3.87;;
9413;SDS011;4746;35.664;139.738;2023-02-13T15:06:17;4.37;;;3.97;;
9413;SDS011;4746;35.664;139.738;2023-02-13T15:09:02;4.20;;;3.90;;
9413;SDS011;4746;35.664;139.738;2023-02-13T15:12:26;4.50;;;4.20;;
9413;SDS011;4746;35.664;139.738;2023-02-13T15:15:23;4.13;;;3.83;;
9413;SDS011;4746;35.664;139.738;2023-02-13T15:18:02;3.63;;;3.33;;
9413;SDS011;4746;35.664;139.738;2023-02-13T15:20:40;2.73;;;2.53;;
9413;SDS011;4746;35.664;139.738;2023-02-13T15:23:16;3.43;;;3.13;;
9413;SDS011;4746;35.664;139.738;2023-02-13T15:25:59;3.37;;;3.17;;
9413;SDS011;4746;35.664;139.738;2023-02-13T15:28:30;3.27;;;3.07;;
9413;SDS011;4746;35.664;139.738;2023-02-13T15:31:00;2.87;;;2.67;;
9413;SDS011;4746;35.664;139.738;2023-02-13T15:33:46;2.67;;;2.47;;
9413;SDS011;4746;35.664;139.738;2023-02-13T15:36:17;2.53;;;2.43;;
9413;SDS011;4746;35.664;139.738;2023-02-13T15:38:58;2.57;;;2.37;;
9413;SDS011;4746;35.664;139.738;2023-02-13T15:41:35;2.57;;;2.43;;
9413;SDS011;4746;35.664;139.738;2023-02-13T15:44:14;2.27;;;2.17;;
9413;SDS011;4746;35.664;139.738;2023-02-13T15:46:50;2.37;;;2.27;;
9413;SDS011;4746;35.664;139.738;2023-02-13T15:49:24;2.47;;;2.37;;
9413;SDS011;4746;35.664;139.738;2023-02-13T15:52:03;2.33;;;2.23;;
9413;SDS011;4746;35.664;139.738;2023-02-13T15:54:49;2.00;;;1.90;;
9413;SDS011;4746;35.664;139.738;2023-02-13T15:57:19;2.00;;;1.90;;
9413;SDS011;4746;35.664;139.738;2023-02-13T15:59:49;2.33;;;2.23;;
9413;SDS011;4746;35.664;139.738;2023-02-13T16:02:27;2.37;;;2.27;;
9413;SDS011;4746;35.664;139.738;2023-02-13T16:05:27;2.20;;;2.00;;
9413;SDS011;4746;35.664;139.738;2023-02-13T16:08:02;2.10;;;2.00;;
9413;SDS011;4746;35.664;139.738;2023-02-13T16:17:04;1.90;;;1.80;;
9413;SDS011;4746;35.664;139.738;2023-02-13T16:28:40;1.93;;;1.73;;
9413;SDS011;4746;35.664;139.738;2023-02-13T16:31:15;1.90;;;1.80;;
9413;SDS011;4746;35.664;139.738;2023-02-13T16:33:52;1.87;;;1.77;;
9413;SDS011;4746;35.664;139.738;2023-02-13T16:36:27;1.40;;;1.40;;
9413;SDS011;4746;35.664;139.738;2023-02-13T16:42:18;1.63;;;1.53;;
9413;SDS011;4746;35.664;139.738;2023-02-13T16:44:46;1.20;;;1.20;;
9413;SDS011;4746;35.664;139.738;2023-02-13T16:47:21;1.10;;;1.10;;
9413;SDS011;4746;35.664;139.738;2023-02-13T16:49:51;1.50;;;1.40;;
9413;SDS011;4746;35.664;139.738;2023-02-13T16:52:22;1.30;;;1.30;;
9413;SDS011;4746;35.664;139.738;2023-02-13T16:54:57;1.50;;;1.30;;
9413;SDS011;4746;35.664;139.738;2023-02-13T16:57:35;1.20;;;1.20;;
9413;SDS011;4746;35.664;139.738;2023-02-13T17:00:26;1.33;;;1.30;;
9413;SDS011;4746;35.664;139.738;2023-02-13T17:02:53;1.10;;;1.10;;
9413;SDS011;4746;35.664;139.738;2023-02-13T17:05:38;1.40;;;1.30;;
9413;SDS011;4746;35.664;139.738;2023-02-13T17:08:14;1.33;;;1.30;;
9413;SDS011;4746;35.664;139.738;2023-02-13T17:11:02;1.03;;;1.03;;
9413;SDS011;4746;35.664;139.738;2023-02-13T17:13:32;1.47;;;1.23;;
9413;SDS011;4746;35.664;139.738;2023-02-13T17:16:00;1.20;;;1.20;;
9413;SDS011;4746;35.664;139.738;2023-02-13T17:18:37;1.13;;;1.13;;
9413;SDS011;4746;35.664;139.738;2023-02-13T17:21:12;1.40;;;1.30;;
9413;SDS011;4746;35.664;139.738;2023-02-13T17:23:39;1.43;;;1.37;;
9413;SDS011;4746;35.664;139.738;2023-02-13T17:26:07;1.00;;;1.00;;
9413;SDS011;4746;35.664;139.738;2023-02-13T17:28:35;1.30;;;1.20;;
9413;SDS011;4746;35.664;139.738;2023-02-13T17:31:04;1.30;;;1.30;;
9413;SDS011;4746;35.664;139.738;2023-02-13T17:33:38;1.23;;;1.23;;
9413;SDS011;4746;35.664;139.738;2023-02-13T17:36:13;1.43;;;1.33;;
9413;SDS011;4746;35.664;139.738;2023-02-13T17:38:42;1.50;;;1.40;;
9413;SDS011;4746;35.664;139.738;2023-02-13T17:41:16;1.20;;;1.20;;
9413;SDS011;4746;35.664;139.738;2023-02-13T17:43:43;1.00;;;1.00;;
9413;SDS011;4746;35.664;139.738;2023-02-13T17:46:11;1.30;;;1.30;;
9413;SDS011;4746;35.664;139.738;2023-02-13T17:48:41;1.10;;;1.10;;
9413;SDS011;4746;35.664;139.738;2023-02-13T17:51:12;1.10;;;1.10;;
9413;SDS011;4746;35.664;139.738;2023-02-13T17:53:40;1.07;;;1.07;;
9413;SDS011;4746;35.664;139.738;2023-02-13T17:56:08;1.10;;;1.10;;
9413;SDS011;4746;35.664;139.738;2023-02-13T17:58:35;1.00;;;1.00;;
9413;SDS011;4746;35.664;139.738;2023-02-13T18:01:03;1.17;;;1.17;;
9413;SDS011;4746;35.664;139.738;2023-02-13T18:03:30;0.90;;;0.90;;
9413;SDS011;4746;35.664;139.738;2023-02-13T18:05:58;0.93;;;0.93;;
9413;SDS011;4746;35.664;139.738;2023-02-13T18:08:35;0.93;;;0.93;;
9413;SDS011;4746;35.664;139.738;2023-02-13T18:11:10;1.07;;;1.07;;
9413;SDS011;4746;35.664;139.738;2023-02-13T18:13:37;1.00;;;1.00;;
9413;SDS011;4746;35.664;139.738;2023-02-13T18:16:12;0.90;;;0.90;;
9413;SDS011;4746;35.664;139.738;2023-02-13T18:18:41;0.80;;;0.80;;
9413;SDS011;4746;35.664;139.738;2023-02-13T18:21:09;0.93;;;0.93;;
9413;SDS011;4746;35.664;139.738;2023-02-13T18:23:37;1.07;;;1.07;;
9413;SDS011;4746;35.664;139.738;2023-02-13T18:26:08;0.93;;;0.93;;